Time;durP1;ratioP1;P1;durP2;ratioP2;P2;SDS_P1;SDS_P2;PMS_P1;PMS_P2;Temp;Humidity;BMP_temperature;BMP_pressure;BME280_temperature;BME280_humidity;BME280_pressure;Samples;Min_cycle;Max_cycle;Signal;HPM_P1;HPM_P2
2021/04/06 00:01:59;;;;;;;8.75;4.63;;;2.50;99.90;;;;;;5041187;28;20242;-77
2021/04/06 00:04:34;;;;;;;7.35;4.00;;;2.40;99.90;;;;;;5051162;28;20627;-78
2021/04/06 00:07:05;;;;;;;8.73;3.65;;;2.40;99.90;;;;;;5055894;28;20183;-78
2021/04/06 00:09:33;;;;;;;5.88;3.53;;;2.50;99.90;;;;;;5054094;28;20230;-77
2021/04/06 00:12:03;;;;;;;4.75;3.60;;;2.50;99.90;;;;;;5071106;28;20186;-78
2021/04/06 00:14:30;;;;;;;3.42;3.20;;;2.50;99.90;;;;;;5064975;28;20702;-78
2021/04/06 00:17:03;;;;;;;4.05;3.35;;;2.50;99.90;;;;;;5070149;28;20239;-78
2021/04/06 00:19:32;;;;;;;4.50;3.33;;;2.50;99.90;;;;;;5072000;28;20216;-77
2021/04/06 00:22:01;;;;;;;6.13;3.67;;;2.60;99.90;;;;;;5069480;28;20658;-77
2021/04/06 00:24:31;;;;;;;8.63;3.05;;;2.60;99.90;;;;;;5065849;28;20224;-77
2021/04/06 00:27:16;;;;;;;9.55;4.20;;;2.60;99.90;;;;;;5060048;28;20594;-77
2021/04/06 00:29:47;;;;;;;5.25;3.30;;;2.60;99.90;;;;;;5062663;28;20216;-78
2021/04/06 00:32:16;;;;;;;4.40;3.17;;;2.70;99.90;;;;;;5054029;28;20487;-77
2021/04/06 00:34:42;;;;;;;9.20;3.22;;;2.70;99.90;;;;;;5070269;28;20302;-77
2021/04/06 00:37:16;;;;;;;6.03;3.20;;;2.60;99.90;;;;;;5070376;28;20218;-77
2021/04/06 00:39:44;;;;;;;8.80;3.20;;;2.60;99.90;;;;;;5070111;28;20225;-78
2021/04/06 00:42:19;;;;;;;3.80;3.03;;;2.60;99.90;;;;;;5071821;28;20184;-78
2021/04/06 00:44:53;;;;;;;4.75;3.60;;;2.70;99.90;;;;;;5069783;28;20212;-78
2021/04/06 00:47:26;;;;;;;6.10;3.53;;;2.70;99.90;;;;;;5071213;28;20249;-77
2021/04/06 00:49:55;;;;;;;9.50;2.47;;;2.70;99.90;;;;;;5070143;28;20219;-77
2021/04/06 00:52:25;;;;;;;5.95;2.13;;;2.70;99.90;;;;;;5052260;28;20229;-77
2021/04/06 00:54:53;;;;;;;11.50;3.35;;;2.70;99.90;;;;;;5059906;28;20654;-77
2021/04/06 00:57:25;;;;;;;8.40;3.30;;;2.70;99.90;;;;;;5071225;28;20666;-77
2021/04/06 01:00:14;;;;;;;9.00;3.75;;;2.70;99.90;;;;;;5069362;28;20231;-78
2021/04/06 01:03:10;;;;;;;4.47;2.60;;;2.80;99.90;;;;;;5070499;28;20188;-78
2021/04/06 01:06:02;;;;;;;5.65;3.20;;;2.70;99.90;;;;;;5070838;28;20223;-77
2021/04/06 01:08:35;;;;;;;7.20;3.47;;;2.70;99.90;;;;;;5068501;28;20586;-78
2021/04/06 01:11:03;;;;;;;11.48;3.40;;;2.70;99.90;;;;;;5068977;28;20334;-77
2021/04/06 01:13:30;;;;;;;8.40;3.05;;;2.70;99.90;;;;;;5071877;28;20658;-77
2021/04/06 01:15:58;;;;;;;6.70;3.60;;;2.70;99.90;;;;;;5060550;28;20276;-78
2021/04/06 01:18:25;;;;;;;6.45;3.65;;;2.70;99.90;;;;;;5071507;28;20837;-77
2021/04/06 01:20:54;;;;;;;8.15;3.53;;;2.70;99.90;;;;;;5070650;28;20231;-77
2021/04/06 01:23:22;;;;;;;4.00;2.45;;;2.70;99.90;;;;;;5062173;28;20188;-78
2021/04/06 01:25:55;;;;;;;7.28;4.07;;;2.70;99.90;;;;;;5053693;28;20235;-78
2021/04/06 01:28:26;;;;;;;8.65;3.28;;;2.70;99.90;;;;;;5068930;28;20184;-77
2021/04/06 01:30:53;;;;;;;9.18;3.70;;;2.80;99.90;;;;;;5061553;28;20214;-78
2021/04/06 01:33:23;;;;;;;10.57;3.70;;;2.70;99.90;;;;;;5070519;28;20219;-77
2021/04/06 01:35:52;;;;;;;8.88;4.28;;;2.70;99.90;;;;;;5069435;28;20228;-77
2021/04/06 01:38:26;;;;;;;5.88;4.35;;;2.70;99.90;;;;;;5052634;28;20203;-78
2021/04/06 01:40:53;;;;;;;12.73;4.40;;;2.70;99.90;;;;;;5069260;28;20232;-78
2021/04/06 01:43:26;;;;;;;9.65;4.57;;;2.70;99.90;;;;;;5062893;28;20198;-78
2021/04/06 01:46:01;;;;;;;11.00;5.75;;;2.70;99.90;;;;;;5069119;28;20222;-77
2021/04/06 01:48:29;;;;;;;7.43;4.70;;;2.70;99.90;;;;;;5070699;28;20211;-77
2021/04/06 01:50:56;;;;;;;12.30;4.88;;;2.70;99.90;;;;;;5069274;28;20207;-78
2021/04/06 01:53:26;;;;;;;8.52;4.85;;;2.70;99.90;;;;;;5065517;28;20267;-77
2021/04/06 01:56:00;;;;;;;7.30;3.90;;;2.70;99.90;;;;;;5066389;28;20222;-77
2021/04/06 01:58:28;;;;;;;10.77;4.10;;;2.70;99.90;;;;;;5071247;28;20180;-77
2021/04/06 02:03:29;;;;;;;11.30;4.05;;;2.70;99.90;;;;;;5071222;28;20192;-77
2021/04/06 02:05:56;;;;;;;9.68;4.82;;;2.70;99.90;;;;;;5070119;28;20273;-77
2021/04/06 02:08:26;;;;;;;8.57;3.85;;;2.70;99.90;;;;;;5065172;28;20196;-77
2021/04/06 02:10:53;;;;;;;14.73;4.30;;;2.70;99.90;;;;;;5073474;28;20231;-77
2021/04/06 02:13:19;;;;;;;8.73;3.60;;;2.70;99.90;;;;;;5075087;28;20271;-78
2021/04/06 02:16:01;;;;;;;7.32;3.47;;;2.60;99.90;;;;;;5071938;28;20681;-78
2021/04/06 02:18:30;;;;;;;7.85;3.30;;;2.60;99.90;;;;;;5067373;28;20565;-77
2021/04/06 02:20:59;;;;;;;3.95;3.25;;;2.60;99.90;;;;;;5074015;28;20222;-77
2021/04/06 02:23:27;;;;;;;6.00;3.97;;;2.60;99.90;;;;;;5073146;28;20270;-77
2021/04/06 02:25:55;;;;;;;6.30;3.80;;;2.70;99.90;;;;;;5072707;28;20313;-78
2021/04/06 02:28:23;;;;;;;6.93;3.30;;;2.60;99.90;;;;;;5061128;28;20185;-77
2021/04/06 02:30:57;;;;;;;9.05;3.80;;;2.60;99.90;;;;;;5070077;28;20298;-78
2021/04/06 02:33:29;;;;;;;10.15;3.20;;;2.60;99.90;;;;;;5073385;28;20187;-77
2021/04/06 02:36:04;;;;;;;7.20;3.25;;;2.60;99.90;;;;;;5073528;28;20215;-78
2021/04/06 02:38:38;;;;;;;7.82;3.55;;;2.70;99.90;;;;;;5060759;28;20196;-77
2021/04/06 02:41:15;;;;;;;9.10;3.83;;;2.70;99.90;;;;;;5072537;28;20211;-77
2021/04/06 02:43:51;;;;;;;9.13;3.90;;;2.70;99.90;;;;;;5056614;28;20286;-78
2021/04/06 02:46:25;;;;;;;4.80;3.85;;;2.70;99.90;;;;;;5073042;28;20219;-77
2021/04/06 02:48:54;;;;;;;9.73;3.20;;;2.70;99.90;;;;;;5074223;28;20194;-77
2021/04/06 02:51:21;;;;;;;5.90;2.95;;;2.60;99.90;;;;;;5065560;28;20222;-78
2021/04/06 02:53:51;;;;;;;8.10;3.08;;;2.60;99.90;;;;;;5067795;28;20187;-77
2021/04/06 02:56:35;;;;;;;4.15;3.38;;;2.70;99.90;;;;;;5065325;28;20222;-77
2021/04/06 02:59:20;;;;;;;3.17;2.40;;;2.70;99.90;;;;;;5071008;28;20274;-78
2021/04/06 03:01:51;;;;;;;3.88;2.50;;;2.70;99.90;;;;;;5073072;28;20572;-77
2021/04/06 03:04:25;;;;;;;4.97;2.58;;;2.70;99.90;;;;;;5072969;28;20632;-77
2021/04/06 03:06:53;;;;;;;5.60;3.00;;;2.70;99.90;;;;;;5061878;28;20706;-78
2021/04/06 03:09:27;;;;;;;2.67;2.10;;;2.70;99.90;;;;;;5068594;28;20269;-77
2021/04/06 03:12:00;;;;;;;5.38;2.65;;;2.70;99.90;;;;;;5074044;28;20183;-77
2021/04/06 03:14:27;;;;;;;3.28;2.35;;;2.60;99.90;;;;;;5070548;28;20741;-77
2021/04/06 03:16:53;;;;;;;3.65;2.40;;;2.60;99.90;;;;;;5072201;28;20203;-77
2021/04/06 03:19:32;;;;;;;4.72;3.08;;;2.70;99.90;;;;;;5065726;28;20303;-77
2021/04/06 03:21:59;;;;;;;6.68;3.58;;;2.70;99.90;;;;;;5073913;28;20257;-77
2021/04/06 03:24:28;;;;;;;4.90;2.67;;;2.70;99.90;;;;;;5071048;28;20314;-77
2021/04/06 03:27:00;;;;;;;8.38;3.97;;;2.60;99.90;;;;;;5072041;28;20208;-78
2021/04/06 03:29:27;;;;;;;9.77;4.22;;;2.70;99.90;;;;;;5071294;28;20226;-78
2021/04/06 03:31:54;;;;;;;6.88;4.22;;;2.70;99.90;;;;;;5073700;28;20267;-77
2021/04/06 03:34:22;;;;;;;6.97;4.22;;;2.70;99.90;;;;;;5072687;28;20644;-77
2021/04/06 03:36:49;;;;;;;8.43;4.50;;;2.70;99.90;;;;;;5071992;28;20658;-78
2021/04/06 03:39:16;;;;;;;7.25;4.10;;;2.60;99.90;;;;;;5064895;28;20233;-77
2021/04/06 03:41:42;;;;;;;6.45;3.70;;;2.60;99.90;;;;;;5073217;28;20259;-77
2021/04/06 03:44:11;;;;;;;12.63;3.67;;;2.60;99.90;;;;;;5069138;28;20181;-77
2021/04/06 03:46:40;;;;;;;7.65;3.22;;;2.60;99.90;;;;;;5066881;28;20607;-77
2021/04/06 03:49:22;;;;;;;9.43;3.47;;;2.60;99.90;;;;;;5072136;28;20219;-77
2021/04/06 03:51:58;;;;;;;6.68;3.72;;;2.60;99.90;;;;;;5073108;28;20589;-78
2021/04/06 03:54:28;;;;;;;5.78;2.95;;;2.50;99.90;;;;;;5066821;28;20273;-78
2021/04/06 03:56:54;;;;;;;6.32;2.63;;;2.50;99.90;;;;;;5070642;28;20212;-77
2021/04/06 03:59:26;;;;;;;13.00;3.95;;;2.40;99.90;;;;;;5070144;28;20290;-78
2021/04/06 04:01:53;;;;;;;8.70;3.95;;;2.40;99.90;;;;;;5073194;28;20204;-78
2021/04/06 04:04:19;;;;;;;5.03;2.72;;;2.40;99.90;;;;;;5054450;28;20233;-78
2021/04/06 04:06:45;;;;;;;5.07;2.25;;;2.40;99.90;;;;;;5071443;28;20250;-78
2021/04/06 04:09:12;;;;;;;11.98;3.80;;;2.40;99.90;;;;;;5069787;28;20184;-77
2021/04/06 04:11:40;;;;;;;14.25;2.45;;;2.40;99.90;;;;;;5072345;28;20623;-77
2021/04/06 04:14:06;;;;;;;8.77;3.47;;;2.40;99.90;;;;;;5068904;28;20287;-78
2021/04/06 04:16:38;;;;;;;9.40;2.45;;;2.40;99.90;;;;;;5070245;28;20234;-78
2021/04/06 04:19:05;;;;;;;7.65;2.38;;;2.40;99.90;;;;;;5070819;28;20717;-77
2021/04/06 04:21:31;;;;;;;8.52;2.20;;;2.50;99.90;;;;;;5071381;28;20230;-78
2021/04/06 04:23:58;;;;;;;7.65;2.30;;;2.50;99.90;;;;;;5067900;28;20211;-78
2021/04/06 04:26:26;;;;;;;8.27;2.60;;;2.40;99.90;;;;;;5054264;28;20243;-78
2021/04/06 04:28:52;;;;;;;6.63;2.47;;;2.40;99.90;;;;;;5069181;28;20176;-77
2021/04/06 04:31:18;;;;;;;5.57;2.95;;;2.40;99.90;;;;;;5063766;28;20216;-78
2021/04/06 04:33:45;;;;;;;6.80;3.05;;;2.40;99.90;;;;;;5055874;28;20208;-77
2021/04/06 04:36:12;;;;;;;7.00;3.55;;;2.40;99.90;;;;;;5069082;28;20219;-78
2021/04/06 04:38:38;;;;;;;6.88;2.70;;;2.50;99.90;;;;;;5070389;28;20663;-78
2021/04/06 04:41:04;;;;;;;7.95;2.83;;;2.50;99.90;;;;;;5070290;28;20313;-77
2021/04/06 04:43:31;;;;;;;10.45;2.65;;;2.50;99.90;;;;;;5072109;28;20207;-78
2021/04/06 04:45:57;;;;;;;6.15;2.83;;;2.50;99.90;;;;;;5068296;28;20222;-77
2021/04/06 04:48:24;;;;;;;5.20;2.22;;;2.50;99.90;;;;;;5071627;28;20271;-77
2021/04/06 04:50:51;;;;;;;5.15;2.67;;;2.50;99.90;;;;;;5069870;28;20208;-78
2021/04/06 04:53:17;;;;;;;5.30;3.08;;;2.50;99.90;;;;;;5067309;28;20254;-78
2021/04/06 04:55:46;;;;;;;3.72;3.30;;;2.50;99.90;;;;;;5069123;28;20298;-78
2021/04/06 04:58:13;;;;;;;8.23;3.30;;;2.50;99.90;;;;;;5070341;28;20649;-77
2021/04/06 05:00:39;;;;;;;5.13;3.40;;;2.50;99.90;;;;;;5069237;28;20234;-78
2021/04/06 05:03:06;;;;;;;8.05;2.85;;;2.50;99.90;;;;;;5071383;28;20180;-77
2021/04/06 05:05:33;;;;;;;7.70;2.70;;;2.50;99.90;;;;;;5069560;28;20220;-77
2021/04/06 05:08:00;;;;;;;5.93;2.70;;;2.50;99.90;;;;;;5067355;28;20177;-78
2021/04/06 05:10:27;;;;;;;3.80;2.40;;;2.50;99.90;;;;;;5069002;28;20256;-77
2021/04/06 05:12:53;;;;;;;8.73;2.90;;;2.40;99.90;;;;;;5070448;28;20191;-78
2021/04/06 05:15:20;;;;;;;5.13;3.22;;;2.40;99.90;;;;;;5067644;28;20681;-78
2021/04/06 05:17:50;;;;;;;6.22;3.05;;;2.40;99.90;;;;;;5038535;28;20301;-77
2021/04/06 05:20:16;;;;;;;8.43;3.05;;;2.40;99.90;;;;;;5068611;28;20272;-77
2021/04/06 05:22:45;;;;;;;3.90;2.60;;;2.30;99.90;;;;;;5071602;28;20259;-77
2021/04/06 05:25:15;;;;;;;3.92;3.17;;;2.30;99.90;;;;;;5068535;28;20220;-77
2021/04/06 05:27:44;;;;;;;4.20;2.50;;;2.30;99.90;;;;;;5070058;28;20188;-77
2021/04/06 05:30:12;;;;;;;5.80;3.40;;;2.30;99.90;;;;;;5051412;28;20231;-77
2021/04/06 05:32:40;;;;;;;8.70;2.80;;;2.40;99.90;;;;;;5053767;28;20199;-77
2021/04/06 05:35:16;;;;;;;9.50;3.70;;;2.40;99.90;;;;;;5069062;28;20273;-77
2021/04/06 05:37:42;;;;;;;4.75;3.17;;;2.40;99.90;;;;;;5050622;28;20219;-78
2021/04/06 05:40:09;;;;;;;3.80;2.60;;;2.50;99.90;;;;;;5054052;28;20216;-77
2021/04/06 05:42:37;;;;;;;6.30;2.20;;;2.60;99.90;;;;;;5071445;28;20641;-77
2021/04/06 05:45:05;;;;;;;5.32;2.88;;;2.60;99.90;;;;;;5064766;28;20220;-77
2021/04/06 05:47:37;;;;;;;3.25;2.25;;;2.60;99.90;;;;;;5073503;28;20210;-77
2021/04/06 05:50:05;;;;;;;5.50;2.38;;;2.60;99.90;;;;;;5073179;28;20273;-77
2021/04/06 05:52:33;;;;;;;4.20;2.60;;;2.70;99.90;;;;;;5053644;28;20218;-78
2021/04/06 05:55:05;;;;;;;7.72;3.00;;;2.70;99.90;;;;;;5075919;28;20207;-78
2021/04/06 05:57:32;;;;;;;6.38;3.47;;;2.60;99.90;;;;;;5074824;28;20184;-78
2021/04/06 05:59:59;;;;;;;8.32;4.10;;;2.60;99.90;;;;;;5071629;28;20937;-78
2021/04/06 06:02:29;;;;;;;7.10;4.00;;;2.60;99.90;;;;;;5053521;28;20192;-77
2021/04/06 06:04:56;;;;;;;5.30;3.97;;;2.60;99.90;;;;;;5073370;28;20589;-77
2021/04/06 06:07:24;;;;;;;8.10;4.20;;;2.60;99.90;;;;;;5056142;28;20191;-77
2021/04/06 06:09:51;;;;;;;6.47;4.43;;;2.50;99.90;;;;;;5065579;28;20600;-78
2021/04/06 06:12:21;;;;;;;10.82;4.85;;;2.50;99.90;;;;;;5072208;28;20195;-78
2021/04/06 06:14:53;;;;;;;8.57;4.65;;;2.60;99.90;;;;;;5058812;28;20690;-77
2021/04/06 06:17:25;;;;;;;14.90;5.18;;;2.60;99.90;;;;;;5073516;28;20721;-77
2021/04/06 06:19:53;;;;;;;13.00;5.43;;;2.70;99.90;;;;;;5064233;28;20690;-77
2021/04/06 06:22:26;;;;;;;6.82;4.65;;;2.80;99.90;;;;;;5053717;28;20215;-77
2021/04/06 06:25:08;;;;;;;6.32;4.90;;;2.90;99.90;;;;;;5070456;28;20281;-78
2021/04/06 06:27:38;;;;;;;9.63;4.45;;;3.20;99.90;;;;;;5058625;28;20645;-77
2021/04/06 06:30:27;;;;;;;9.43;4.75;;;3.40;99.90;;;;;;5071772;28;20208;-78
2021/04/06 06:33:26;;;;;;;6.45;4.30;;;3.40;99.90;;;;;;5056413;28;20593;-77
2021/04/06 06:35:57;;;;;;;7.22;3.60;;;3.60;99.90;;;;;;5065526;28;20224;-77
2021/04/06 06:38:39;;;;;;;6.65;3.67;;;3.70;99.90;;;;;;5070226;28;20211;-77
2021/04/06 06:41:19;;;;;;;6.47;4.50;;;3.90;99.90;;;;;;5072211;28;20708;-77
2021/04/06 06:43:51;;;;;;;5.15;4.20;;;4.10;99.90;;;;;;5072088;28;20606;-78
2021/04/06 06:46:24;;;;;;;10.50;4.43;;;4.10;99.90;;;;;;5065009;28;20634;-77
2021/04/06 06:49:06;;;;;;;8.63;4.57;;;3.90;99.90;;;;;;5074491;28;20250;-77
2021/04/06 06:51:36;;;;;;;6.65;4.32;;;3.80;99.90;;;;;;5072746;28;20218;-77
2021/04/06 06:54:06;;;;;;;9.38;4.60;;;3.70;99.90;;;;;;5059510;28;20193;-78
2021/04/06 06:56:39;;;;;;;5.35;3.85;;;3.60;99.90;;;;;;5072177;28;20199;-77
2021/04/06 06:59:09;;;;;;;14.45;4.88;;;3.60;99.90;;;;;;5071189;28;20184;-77
2021/04/06 07:01:40;;;;;;;6.30;3.13;;;3.70;99.90;;;;;;5074499;28;20184;-77
2021/04/06 07:04:13;;;;;;;6.13;4.10;;;3.60;99.90;;;;;;5072073;28;20188;-78
2021/04/06 07:06:42;;;;;;;7.80;3.78;;;3.50;99.90;;;;;;5072444;28;20206;-77
2021/04/06 07:09:39;;;;;;;8.85;4.10;;;3.50;99.90;;;;;;5070277;28;20197;-78
2021/04/06 07:12:09;;;;;;;8.10;4.40;;;3.40;99.90;;;;;;5063788;28;20192;-78
2021/04/06 07:14:40;;;;;;;6.75;3.35;;;3.40;99.90;;;;;;5070067;28;20215;-77
2021/04/06 07:17:12;;;;;;;7.15;4.28;;;3.30;99.90;;;;;;5072148;28;20222;-77
2021/04/06 07:19:44;;;;;;;9.25;3.83;;;3.20;99.90;;;;;;5058048;28;20219;-77
2021/04/06 07:22:18;;;;;;;5.93;4.00;;;3.30;99.90;;;;;;5089216;28;20187;-77
2021/04/06 07:24:46;;;;;;;5.38;3.28;;;3.40;99.90;;;;;;5069909;28;20211;-78
2021/04/06 07:27:16;;;;;;;5.05;3.55;;;3.40;99.90;;;;;;5061470;28;20279;-78
2021/04/06 07:29:43;;;;;;;7.25;3.05;;;3.30;99.90;;;;;;5071741;28;20243;-77
2021/04/06 07:32:14;;;;;;;5.00;3.15;;;3.30;99.90;;;;;;5055801;28;20195;-77
2021/04/06 07:34:53;;;;;;;6.20;3.40;;;3.20;99.90;;;;;;5071277;28;20320;-78
2021/04/06 07:37:22;;;;;;;6.40;3.15;;;3.20;99.90;;;;;;5071711;28;20204;-77
2021/04/06 07:39:54;;;;;;;5.72;3.97;;;3.40;99.90;;;;;;5062081;28;20208;-78
2021/04/06 07:42:21;;;;;;;4.07;3.30;;;3.60;99.90;;;;;;5071012;28;20191;-77
2021/04/06 07:44:51;;;;;;;5.30;4.53;;;4.00;99.90;;;;;;5069975;28;20223;-78
2021/04/06 07:47:35;;;;;;;6.20;3.28;;;4.40;99.90;;;;;;5071227;28;20727;-77
2021/04/06 07:50:05;;;;;;;8.35;4.20;;;4.70;99.90;;;;;;5071734;28;20211;-78
2021/04/06 07:52:32;;;;;;;5.40;3.28;;;4.90;99.90;;;;;;5071890;28;20592;-77
2021/04/06 07:54:59;;;;;;;5.85;3.50;;;4.80;99.90;;;;;;5069396;28;20281;-77
2021/04/06 07:57:47;;;;;;;7.05;3.55;;;5.10;99.90;;;;;;5070759;28;20208;-77
2021/04/06 08:00:49;;;;;;;5.88;3.42;;;5.00;99.90;;;;;;5069509;28;20724;-77
2021/04/06 08:03:57;;;;;;;6.00;4.90;;;4.70;99.90;;;;;;5072746;28;20184;-77
2021/04/06 08:06:39;;;;;;;9.13;4.00;;;4.40;99.90;;;;;;5068002;28;20211;-78
2021/04/06 08:09:35;;;;;;;4.78;3.67;;;4.10;99.90;;;;;;5052682;28;20223;-77
2021/04/06 08:12:05;;;;;;;8.35;4.38;;;3.80;99.90;;;;;;5067365;28;20249;-77
2021/04/06 08:14:35;;;;;;;5.97;3.58;;;3.60;99.90;;;;;;5068433;28;20214;-77
2021/04/06 08:17:40;;;;;;;7.07;3.72;;;3.50;99.90;;;;;;5057195;28;20213;-77
2021/04/06 08:20:20;;;;;;;8.18;4.68;;;3.40;99.90;;;;;;4990215;28;20848;-77
2021/04/06 08:23:02;;;;;;;4.57;2.92;;;3.30;99.90;;;;;;5059310;28;20211;-77
2021/04/06 08:25:32;;;;;;;6.63;2.60;;;3.20;99.90;;;;;;5066308;28;20218;-78
2021/04/06 08:28:23;;;;;;;15.65;4.00;;;3.10;99.90;;;;;;5071277;28;20221;-77
2021/04/06 08:31:16;;;;;;;5.35;3.83;;;3.10;99.90;;;;;;5045144;28;20290;-77
2021/04/06 08:33:42;;;;;;;4.10;3.65;;;3.30;99.90;;;;;;5071294;28;20242;-77
2021/04/06 08:36:23;;;;;;;7.60;4.28;;;3.60;99.90;;;;;;5053455;28;20295;-78
2021/04/06 08:38:57;;;;;;;4.57;3.33;;;4.10;99.90;;;;;;5051824;28;20208;-77
2021/04/06 08:41:26;;;;;;;6.55;4.40;;;4.70;99.90;;;;;;5071978;28;20215;-78
2021/04/06 08:44:01;;;;;;;3.47;3.17;;;5.40;99.90;;;;;;5069509;28;20253;-77
2021/04/06 08:46:50;;;;;;;5.28;3.83;;;5.90;99.90;;;;;;5064590;28;20215;-77
2021/04/06 08:49:25;;;;;;;4.40;3.35;;;5.90;99.90;;;;;;5061919;28;20573;-78
2021/04/06 08:51:53;;;;;;;4.22;2.95;;;6.40;99.90;;;;;;5066873;28;20187;-78
2021/04/06 08:54:29;;;;;;;3.65;2.53;;;6.70;99.90;;;;;;5070439;28;20184;-78
2021/04/06 08:56:58;;;;;;;3.42;2.33;;;6.70;99.90;;;;;;5069768;28;20203;-78
2021/04/06 08:59:34;;;;;;;3.67;2.80;;;6.90;99.90;;;;;;5069626;28;20215;-78
2021/04/06 09:02:06;;;;;;;3.97;3.40;;;6.60;99.90;;;;;;5071364;28;20237;-78
2021/04/06 09:04:35;;;;;;;3.85;3.13;;;6.20;99.90;;;;;;5070858;28;20295;-77
2021/04/06 09:07:26;;;;;;;4.15;2.90;;;5.90;99.90;;;;;;5071367;28;20653;-77
2021/04/06 09:10:02;;;;;;;3.40;2.67;;;5.70;99.90;;;;;;5054971;28;20589;-77
2021/04/06 09:12:33;;;;;;;6.65;2.85;;;5.50;99.90;;;;;;5071461;28;20194;-77
2021/04/06 09:15:01;;;;;;;5.55;2.90;;;5.40;99.90;;;;;;5061294;28;20230;-77
2021/04/06 09:17:35;;;;;;;5.00;3.20;;;5.20;99.90;;;;;;5071038;28;20245;-77
2021/04/06 09:20:14;;;;;;;7.25;3.58;;;4.90;99.90;;;;;;5069269;28;20581;-77
2021/04/06 09:22:44;;;;;;;3.75;1.90;;;4.70;99.90;;;;;;5071270;28;20621;-77
2021/04/06 09:25:21;;;;;;;5.13;2.60;;;4.70;99.90;;;;;;5067945;28;20220;-77
2021/04/06 09:27:53;;;;;;;3.60;2.35;;;4.60;99.90;;;;;;5069785;28;20187;-77
2021/04/06 09:30:31;;;;;;;3.00;2.30;;;4.80;99.90;;;;;;5052446;28;20216;-77
2021/04/06 09:33:07;;;;;;;3.42;2.20;;;4.80;99.90;;;;;;5071113;28;20256;-77
2021/04/06 09:35:45;;;;;;;3.58;3.28;;;4.80;99.90;;;;;;5069337;28;20759;-77
2021/04/06 09:38:20;;;;;;;4.68;2.72;;;4.80;99.90;;;;;;5066846;28;20199;-78
2021/04/06 09:40:47;;;;;;;7.38;3.20;;;4.80;99.90;;;;;;5064230;28;20207;-77
2021/04/06 09:43:14;;;;;;;3.97;2.72;;;4.90;99.90;;;;;;5071402;28;20188;-77
2021/04/06 09:45:41;;;;;;;4.47;3.45;;;5.00;99.90;;;;;;5048407;28;20213;-77
2021/04/06 09:48:15;;;;;;;4.47;2.35;;;5.10;99.90;;;;;;5060822;28;20195;-77
2021/04/06 09:50:58;;;;;;;3.35;2.67;;;5.10;99.90;;;;;;5070006;28;20572;-77
2021/04/06 09:53:27;;;;;;;4.93;2.60;;;5.40;99.90;;;;;;5056837;28;20708;-77
2021/04/06 09:55:59;;;;;;;3.15;2.10;;;5.80;99.90;;;;;;5049379;28;20220;-77
2021/04/06 09:58:28;;;;;;;2.65;1.90;;;6.00;99.90;;;;;;5069492;28;20287;-77
2021/04/06 10:00:57;;;;;;;2.72;1.50;;;6.20;99.90;;;;;;5052301;28;20261;-77
2021/04/06 10:03:24;;;;;;;3.80;1.83;;;6.50;99.90;;;;;;5062667;28;20196;-77
2021/04/06 10:06:12;;;;;;;2.00;1.80;;;6.70;99.90;;;;;;5068485;28;20207;-77
2021/04/06 10:08:40;;;;;;;3.63;1.67;;;7.20;99.90;;;;;;5064627;28;20184;-78
2021/04/06 10:11:09;;;;;;;3.10;1.77;;;7.50;99.90;;;;;;5066257;28;20616;-77
2021/04/06 10:13:38;;;;;;;2.72;1.48;;;7.80;99.90;;;;;;5069405;28;20194;-77
2021/04/06 10:16:09;;;;;;;6.93;2.20;;;7.70;99.90;;;;;;5050886;28;20306;-77
2021/04/06 10:18:45;;;;;;;2.40;1.30;;;7.50;99.90;;;;;;5056590;28;20216;-77
2021/04/06 10:21:26;;;;;;;4.80;1.38;;;7.40;99.90;;;;;;5070316;28;20215;-78
2021/04/06 10:24:02;;;;;;;6.60;1.42;;;7.10;99.90;;;;;;5065635;28;20219;-78
2021/04/06 10:26:29;;;;;;;4.60;1.75;;;6.90;99.90;;;;;;5062127;28;20212;-77
2021/04/06 10:29:10;;;;;;;3.30;2.03;;;6.50;99.90;;;;;;5068343;28;20727;-77
2021/04/06 10:31:48;;;;;;;4.13;1.92;;;6.00;99.90;;;;;;5073434;28;20219;-77
2021/04/06 10:34:16;;;;;;;3.28;2.00;;;5.70;99.90;;;;;;5072962;28;20519;-77
2021/04/06 10:37:03;;;;;;;6.30;2.22;;;5.30;99.90;;;;;;5069814;28;20235;-77
2021/04/06 10:39:37;;;;;;;8.52;2.42;;;5.20;99.90;;;;;;5067947;28;20268;-77
2021/04/06 10:42:08;;;;;;;6.35;2.53;;;5.40;99.90;;;;;;5073163;28;20180;-77
2021/04/06 10:44:38;;;;;;;2.97;2.40;;;5.60;99.90;;;;;;5072357;28;20219;-77
2021/04/06 10:47:04;;;;;;;5.13;3.10;;;5.70;99.90;;;;;;5072400;28;20274;-77
2021/04/06 10:49:31;;;;;;;5.90;2.40;;;5.80;99.90;;;;;;5073622;28;20230;-76
2021/04/06 10:52:01;;;;;;;3.70;2.15;;;5.90;99.90;;;;;;5072669;28;20201;-77
2021/04/06 10:54:28;;;;;;;5.43;2.60;;;5.90;99.90;;;;;;5072566;28;20222;-77
2021/04/06 10:56:57;;;;;;;6.63;2.70;;;5.90;99.90;;;;;;5072148;28;20199;-77
2021/04/06 10:59:45;;;;;;;5.13;2.75;;;5.80;99.90;;;;;;5071194;28;20204;-77
2021/04/06 11:02:20;;;;;;;3.42;2.70;;;5.80;99.90;;;;;;5072939;28;20732;-77
2021/04/06 11:04:47;;;;;;;4.13;2.75;;;5.80;99.90;;;;;;5072378;28;20211;-77
2021/04/06 11:07:14;;;;;;;11.00;3.50;;;5.90;99.90;;;;;;5072627;28;20192;-77
2021/04/06 11:09:44;;;;;;;5.55;2.50;;;5.90;99.90;;;;;;5071521;28;20222;-77
2021/04/06 11:12:13;;;;;;;4.32;3.13;;;6.00;99.90;;;;;;5072216;28;20273;-77
2021/04/06 11:14:41;;;;;;;6.25;3.33;;;6.10;99.90;;;;;;5054648;28;20693;-77
2021/04/06 11:17:10;;;;;;;6.95;3.88;;;6.00;99.90;;;;;;5072971;28;20621;-77
2021/04/06 11:19:48;;;;;;;7.00;4.20;;;5.70;99.90;;;;;;5047260;28;20212;-77
2021/04/06 11:22:19;;;;;;;6.40;4.13;;;5.60;99.90;;;;;;5052824;28;20177;-77
2021/04/06 11:24:48;;;;;;;6.75;3.55;;;5.60;99.90;;;;;;5068831;28;20273;-77
2021/04/06 11:27:20;;;;;;;6.13;3.20;;;5.30;99.90;;;;;;5071683;28;20669;-77
2021/04/06 11:29:48;;;;;;;7.20;3.97;;;5.30;99.90;;;;;;5065131;28;20722;-77
2021/04/06 11:32:21;;;;;;;9.52;3.83;;;5.30;99.90;;;;;;5073022;28;20211;-77
2021/04/06 11:34:49;;;;;;;8.60;3.45;;;5.30;99.90;;;;;;5054881;28;20215;-77
2021/04/06 11:37:16;;;;;;;8.48;3.35;;;5.30;99.90;;;;;;5071301;28;20203;-77
2021/04/06 11:39:48;;;;;;;5.75;4.25;;;5.20;99.90;;;;;;5050337;28;20219;-77
2021/04/06 11:42:16;;;;;;;4.85;3.40;;;5.30;99.90;;;;;;5051340;28;20662;-77
2021/04/06 11:44:44;;;;;;;4.38;2.97;;;5.40;99.90;;;;;;5055913;28;20216;-77
2021/04/06 11:47:11;;;;;;;9.15;2.80;;;5.70;99.90;;;;;;5055181;28;20664;-77
2021/04/06 11:49:39;;;;;;;3.10;2.20;;;6.00;99.90;;;;;;5056489;28;20236;-77
2021/04/06 11:52:08;;;;;;;3.53;1.80;;;6.30;99.90;;;;;;5037738;28;20204;-77
2021/04/06 11:54:35;;;;;;;2.78;1.75;;;6.50;99.90;;;;;;5064790;28;20220;-77
2021/04/06 11:57:03;;;;;;;2.10;1.45;;;6.50;99.90;;;;;;5058179;28;20294;-77
2021/04/06 11:59:33;;;;;;;1.42;1.30;;;6.30;99.90;;;;;;5056972;28;20686;-77
2021/04/06 12:02:03;;;;;;;1.15;1.05;;;6.20;99.90;;;;;;5036753;28;20189;-77
2021/04/06 12:04:30;;;;;;;1.50;1.40;;;6.20;99.90;;;;;;5063717;28;20211;-77
2021/04/06 12:06:56;;;;;;;3.78;1.20;;;6.20;99.90;;;;;;5071520;28;20206;-77
2021/04/06 12:09:24;;;;;;;5.65;1.70;;;6.30;99.90;;;;;;5069836;28;20611;-77
2021/04/06 12:11:52;;;;;;;3.85;1.95;;;6.30;99.90;;;;;;5071053;28;20184;-76
2021/04/06 12:14:18;;;;;;;7.45;2.22;;;6.30;99.90;;;;;;5066407;28;20184;-76
2021/04/06 12:16:45;;;;;;;3.72;2.30;;;6.30;99.90;;;;;;5053833;28;20708;-77
2021/04/06 12:19:11;;;;;;;2.90;2.60;;;6.30;99.90;;;;;;5061004;28;20673;-77
2021/04/06 12:21:38;;;;;;;5.32;2.83;;;6.30;99.90;;;;;;5064551;28;20184;-77
2021/04/06 12:24:05;;;;;;;4.78;2.67;;;6.10;99.90;;;;;;5071489;28;20242;-77
2021/04/06 12:26:32;;;;;;;3.25;2.35;;;6.10;99.90;;;;;;5071263;28;20200;-77
2021/04/06 12:28:59;;;;;;;5.38;2.13;;;6.20;99.90;;;;;;5068154;28;20183;-77
2021/04/06 12:31:27;;;;;;;1.98;1.50;;;6.10;99.90;;;;;;5063419;28;20291;-77
2021/04/06 12:33:54;;;;;;;3.22;1.85;;;5.80;99.90;;;;;;5071116;28;20184;-77
2021/04/06 12:36:22;;;;;;;2.33;1.20;;;5.60;99.90;;;;;;5069744;28;20220;-77
2021/04/06 12:38:52;;;;;;;3.90;0.77;;;5.30;99.90;;;;;;5069476;28;20200;-77
2021/04/06 12:41:19;;;;;;;1.52;0.82;;;4.60;99.90;;;;;;5070224;28;20584;-77
2021/04/06 12:43:46;;;;;;;1.48;0.60;;;3.80;99.90;;;;;;5069868;28;20191;-76
2021/04/06 12:46:12;;;;;;;0.90;0.68;;;3.30;99.90;;;;;;5068639;28;20592;-77
2021/04/06 12:48:39;;;;;;;0.50;0.40;;;3.00;99.90;;;;;;5070510;28;20241;-77
2021/04/06 12:51:07;;;;;;;0.90;0.50;;;2.70;99.90;;;;;;5069630;28;20306;-77
2021/04/06 12:53:39;;;;;;;3.38;0.80;;;2.60;99.90;;;;;;5039491;28;20286;-77
2021/04/06 12:56:08;;;;;;;2.28;1.40;;;2.50;99.90;;;;;;5069109;28;20228;-76
2021/04/06 12:58:38;;;;;;;1.25;0.95;;;2.50;99.90;;;;;;5066604;28;20204;-77
2021/04/06 13:01:10;;;;;;;2.13;1.25;;;2.60;99.90;;;;;;5047108;28;20697;-77
2021/04/06 13:03:37;;;;;;;2.90;1.60;;;2.60;99.90;;;;;;5050876;28;20189;-78
2021/04/06 13:06:04;;;;;;;3.33;1.80;;;2.60;99.90;;;;;;5065154;28;20212;-77
2021/04/06 13:08:35;;;;;;;3.50;1.90;;;2.80;99.90;;;;;;5069919;28;20196;-77
2021/04/06 13:11:02;;;;;;;4.28;2.15;;;2.90;99.90;;;;;;5060652;28;20222;-77
2021/04/06 13:13:29;;;;;;;7.13;2.40;;;3.00;99.90;;;;;;5063550;28;20222;-78
2021/04/06 13:15:55;;;;;;;1.98;1.58;;;3.10;99.90;;;;;;5065458;28;20697;-77
2021/04/06 13:18:22;;;;;;;3.05;1.52;;;3.10;99.90;;;;;;5071193;28;20204;-77
2021/04/06 13:20:51;;;;;;;2.88;1.30;;;3.20;99.90;;;;;;5070168;28;20295;-78